createdAt,value
2018-06-10T00:01:00.368Z,14.83
2018-06-10T00:03:29.464Z,12.50
2018-06-10T00:05:58.791Z,10.43
2018-06-10T00:08:28.165Z,11.10
2018-06-10T00:10:57.359Z,12.67
2018-06-10T00:13:26.495Z,12.13
2018-06-10T00:15:55.703Z,19.90
2018-06-10T00:18:25.086Z,22.30
2018-06-10T00:20:54.667Z,18.57
2018-06-10T00:23:23.839Z,19.23
2018-06-10T00:25:53.267Z,17.77
2018-06-10T00:28:27.689Z,14.83
2018-06-10T00:30:57.054Z,19.93
2018-06-10T00:33:26.332Z,18.10
2018-06-10T00:35:55.639Z,15.27
2018-06-10T00:38:24.904Z,19.37
2018-06-10T00:40:54.706Z,17.80
2018-06-10T00:43:24.228Z,16.97
2018-06-10T00:45:53.477Z,15.07
2018-06-10T00:48:22.584Z,15.40
2018-06-10T00:50:52.121Z,13.50
2018-06-10T00:53:21.481Z,20.00
2018-06-10T00:55:50.626Z,10.50
2018-06-10T00:58:19.860Z,12.90
2018-06-10T01:00:48.984Z,12.30
2018-06-10T01:03:18.436Z,12.97
2018-06-10T01:05:47.840Z,8.63
2018-06-10T01:08:17.421Z,10.40
2018-06-10T01:10:46.899Z,13.03
2018-06-10T01:13:16.042Z,11.93
2018-06-10T01:15:45.435Z,11.30
2018-06-10T01:18:14.811Z,11.60
2018-06-10T01:20:44.213Z,10.93
2018-06-10T01:23:13.280Z,10.23
2018-06-10T01:25:42.881Z,12.73
2018-06-10T01:28:12.315Z,8.27
2018-06-10T01:30:41.785Z,11.57
2018-06-10T01:33:11.037Z,12.13
2018-06-10T01:35:40.360Z,12.20
2018-06-10T01:38:09.472Z,12.23
2018-06-10T01:40:39.112Z,10.97
2018-06-10T01:43:08.500Z,11.03
2018-06-10T01:45:37.874Z,13.23
2018-06-10T01:48:06.965Z,12.07
2018-06-10T01:50:36.563Z,12.47
2018-06-10T01:53:05.799Z,10.63
2018-06-10T01:55:35.396Z,12.17
2018-06-10T01:58:04.612Z,10.43
2018-06-10T02:00:34.080Z,10.97
2018-06-10T02:03:03.647Z,16.17
2018-06-10T02:05:33.329Z,29.53
2018-06-10T02:08:02.611Z,49.13
2018-06-10T02:10:31.660Z,42.93
2018-06-10T02:13:01.348Z,100.60
2018-06-10T02:15:30.601Z,76.67
2018-06-10T02:18:00.112Z,33.13
2018-06-10T02:20:29.596Z,74.30
2018-06-10T02:22:59.235Z,116.93
2018-06-10T02:25:28.308Z,23.67
2018-06-10T02:27:57.548Z,20.90
2018-06-10T02:30:27.040Z,23.17
2018-06-10T02:32:56.511Z,22.60
2018-06-10T02:35:25.922Z,24.77
2018-06-10T02:37:55.366Z,20.93
2018-06-10T02:40:24.540Z,26.97
2018-06-10T02:42:53.768Z,27.50
2018-06-10T02:45:23.269Z,27.03
2018-06-10T02:47:52.355Z,26.63
2018-06-10T02:50:21.599Z,27.57
2018-06-10T02:52:50.860Z,27.50
2018-06-10T02:55:20.131Z,19.23
2018-06-10T02:57:49.619Z,21.40
2018-06-10T03:00:19.283Z,21.43
2018-06-10T03:02:48.316Z,17.57
2018-06-10T03:05:17.721Z,21.40
2018-06-10T03:07:47.070Z,19.13
2018-06-10T03:10:16.479Z,19.07
2018-06-10T03:12:45.632Z,15.63
2018-06-10T03:15:14.975Z,21.20
2018-06-10T03:17:44.261Z,21.37
2018-06-10T03:20:13.604Z,16.57
2018-06-10T03:22:42.940Z,14.67
2018-06-10T03:25:12.037Z,12.73
2018-06-10T03:27:41.407Z,12.87
2018-06-10T03:30:10.791Z,12.10
2018-06-10T03:32:40.171Z,15.60
2018-06-10T03:35:09.476Z,12.20
2018-06-10T03:37:38.803Z,12.23
2018-06-10T03:40:08.229Z,15.33
2018-06-10T03:42:38.503Z,11.50
2018-06-10T03:45:07.655Z,13.20
2018-06-10T03:47:36.879Z,18.20
2018-06-10T03:50:06.170Z,11.90
2018-06-10T03:52:35.169Z,12.83
2018-06-10T03:55:04.209Z,11.97
2018-06-10T03:57:34.164Z,13.97
2018-06-10T04:00:03.531Z,11.80
2018-06-10T04:02:32.835Z,14.07
2018-06-10T04:05:02.811Z,13.57
2018-06-10T04:07:32.261Z,13.67
2018-06-10T04:10:01.749Z,15.53
2018-06-10T04:12:31.033Z,17.27
2018-06-10T04:15:00.760Z,13.90
2018-06-10T04:17:29.870Z,14.93
2018-06-10T04:19:59.363Z,13.97
2018-06-10T04:22:29.008Z,12.30
2018-06-10T04:24:58.399Z,17.50
2018-06-10T04:27:28.756Z,20.07
2018-06-10T04:29:58.073Z,23.97
2018-06-10T04:32:27.222Z,28.80
2018-06-10T04:34:56.523Z,22.33
2018-06-10T04:37:26.084Z,22.37
2018-06-10T04:39:55.504Z,20.07
2018-06-10T04:42:24.804Z,19.17
2018-06-10T04:44:53.931Z,19.53
2018-06-10T04:47:23.345Z,19.77
2018-06-10T04:49:52.981Z,15.60
2018-06-10T04:52:22.060Z,17.90
2018-06-10T04:54:51.440Z,14.70
2018-06-10T04:57:20.804Z,16.60
2018-06-10T04:59:50.074Z,17.17
2018-06-10T05:02:19.292Z,15.43
2018-06-10T05:04:48.702Z,13.43
2018-06-10T05:07:17.786Z,15.03
2018-06-10T05:09:47.668Z,12.10
2018-06-10T05:12:17.013Z,13.77
2018-06-10T05:14:46.471Z,15.60
2018-06-10T05:17:15.310Z,11.93
2018-06-10T05:19:44.660Z,14.37
2018-06-10T05:22:14.044Z,13.67
2018-06-10T05:24:43.601Z,15.47
2018-06-10T05:27:12.761Z,10.90
2018-06-10T05:29:41.653Z,10.93
2018-06-10T05:32:11.025Z,12.10
2018-06-10T05:34:40.200Z,11.07
2018-06-10T05:37:09.489Z,12.77
2018-06-10T05:39:38.896Z,12.80
2018-06-10T05:42:08.160Z,13.63
2018-06-10T05:44:37.504Z,10.43
2018-06-10T05:47:06.811Z,11.80
2018-06-10T05:49:36.440Z,12.43
2018-06-10T05:52:05.823Z,12.67
2018-06-10T05:54:35.324Z,12.07
2018-06-10T05:57:04.809Z,11.10
2018-06-10T05:59:34.260Z,10.27
2018-06-10T06:02:03.863Z,10.97
2018-06-10T06:04:32.975Z,15.60
2018-06-10T06:07:01.996Z,21.03
2018-06-10T06:09:31.274Z,16.50
2018-06-10T06:12:00.515Z,16.10
2018-06-10T06:14:30.166Z,17.93
2018-06-10T06:16:59.180Z,20.77
2018-06-10T06:19:28.738Z,19.33
2018-06-10T06:21:58.104Z,18.90
2018-06-10T06:24:27.348Z,16.67
2018-06-10T06:26:56.654Z,16.13
2018-06-10T06:29:25.915Z,15.77
2018-06-10T06:31:55.071Z,15.87
2018-06-10T06:34:24.407Z,14.67
2018-06-10T06:36:53.703Z,15.57
2018-06-10T06:39:22.964Z,12.80
2018-06-10T06:41:52.196Z,14.47
2018-06-10T06:44:21.669Z,9.77
2018-06-10T06:46:50.596Z,11.03
2018-06-10T06:49:19.896Z,12.37
2018-06-10T06:51:49.245Z,8.93
2018-06-10T06:54:18.510Z,10.87
2018-06-10T06:56:47.749Z,9.93
2018-06-10T06:59:17.415Z,12.57
2018-06-10T07:01:47.456Z,11.63
2018-06-10T07:04:17.028Z,11.10
2018-06-10T07:06:46.357Z,11.67
2018-06-10T07:09:15.769Z,9.17
2018-06-10T07:11:45.456Z,9.20
2018-06-10T07:14:14.675Z,10.13
2018-06-10T07:16:44.060Z,11.80
2018-06-10T07:19:13.178Z,8.37
2018-06-10T07:21:43.501Z,9.90
2018-06-10T07:24:13.051Z,8.77
2018-06-10T07:26:42.551Z,7.93
2018-06-10T07:29:12.332Z,8.50
2018-06-10T07:31:41.863Z,9.33
2018-06-10T07:34:11.876Z,8.57
2018-06-10T07:36:41.336Z,8.40
2018-06-10T07:39:10.520Z,7.97
2018-06-10T07:41:39.933Z,8.63
2018-06-10T07:44:09.601Z,7.97
2018-06-10T07:46:39.106Z,7.67
2018-06-10T07:49:08.869Z,7.57
2018-06-10T07:51:38.673Z,7.10
2018-06-10T07:54:07.605Z,7.03
2018-06-10T07:56:37.048Z,9.30
2018-06-10T07:59:06.398Z,8.95
2018-06-10T08:01:35.592Z,7.47
2018-06-10T08:04:05.091Z,7.15
2018-06-10T08:06:35.123Z,10.13
2018-06-10T08:09:05.693Z,10.03
2018-06-10T08:11:35.405Z,9.35
2018-06-10T08:14:04.658Z,8.03
2018-06-10T08:16:34.239Z,6.20
2018-06-10T08:19:03.971Z,6.37
2018-06-10T08:21:33.385Z,11.65
2018-06-10T08:24:02.926Z,10.18
2018-06-10T08:26:32.685Z,7.85
2018-06-10T08:29:02.009Z,8.98
2018-06-10T08:31:33.176Z,9.15
2018-06-10T08:34:02.491Z,8.35
2018-06-10T08:36:31.909Z,14.73
2018-06-10T08:39:01.296Z,9.88
2018-06-10T08:41:30.870Z,10.60
2018-06-10T08:44:00.123Z,13.28
2018-06-10T08:46:29.567Z,10.03
2018-06-10T08:48:58.929Z,16.87
2018-06-10T08:51:28.601Z,14.45
2018-06-10T08:53:57.885Z,10.82
2018-06-10T08:56:27.353Z,15.55
2018-06-10T08:58:56.803Z,10.55
2018-06-10T09:01:26.648Z,9.03
2018-06-10T09:03:55.926Z,11.55
2018-06-10T09:06:25.351Z,9.35
2018-06-10T09:08:55.077Z,10.58
2018-06-10T09:11:24.902Z,14.07
2018-06-10T09:13:54.674Z,11.83
2018-06-10T09:16:24.067Z,7.37
2018-06-10T09:18:54.418Z,7.87
2018-06-10T09:21:23.973Z,10.40
2018-06-10T09:23:53.669Z,10.65
2018-06-10T09:26:23.672Z,8.63
2018-06-10T09:28:53.410Z,10.58
2018-06-10T09:31:23.044Z,5.75
2018-06-10T09:33:52.917Z,9.03
2018-06-10T09:36:22.714Z,6.42
2018-06-10T09:38:52.437Z,9.30
2018-06-10T09:41:22.081Z,7.00
2018-06-10T09:43:51.717Z,9.80
2018-06-10T09:46:21.152Z,5.30
2018-06-10T09:48:50.965Z,7.67
2018-06-10T09:51:22.057Z,8.88
2018-06-10T09:53:51.897Z,7.20
2018-06-10T09:56:21.475Z,7.95
2018-06-10T09:58:50.841Z,5.10
2018-06-10T10:01:20.461Z,8.05
2018-06-10T10:03:50.440Z,8.58
2018-06-10T10:06:19.783Z,7.80
2018-06-10T10:08:49.610Z,8.83
2018-06-10T10:11:19.433Z,6.78
2018-06-10T10:13:48.872Z,6.55
2018-06-10T10:16:18.421Z,6.72
2018-06-10T10:18:47.984Z,8.33
2018-06-10T10:21:17.679Z,13.40
2018-06-10T10:23:46.920Z,5.50
2018-06-10T10:26:16.618Z,8.55
2018-06-10T10:28:46.321Z,11.15
2018-06-10T10:31:15.833Z,8.50
2018-06-10T10:33:45.363Z,6.90
2018-06-10T10:36:14.925Z,9.20
2018-06-10T10:38:44.265Z,6.25
2018-06-10T10:41:14.000Z,9.80
2018-06-10T10:43:43.487Z,7.62
2018-06-10T10:46:12.825Z,5.25
2018-06-10T10:48:42.480Z,6.30
2018-06-10T10:51:11.280Z,7.80
2018-06-10T10:53:40.543Z,7.92
2018-06-10T10:56:10.506Z,8.23
2018-06-10T10:58:39.666Z,7.78
2018-06-10T11:01:08.491Z,8.45
2018-06-10T11:03:37.753Z,7.03
2018-06-10T11:06:07.332Z,6.83
2018-06-10T11:08:37.466Z,5.50
2018-06-10T11:11:07.100Z,7.08
2018-06-10T11:13:36.530Z,7.20
2018-06-10T11:16:06.112Z,6.30
2018-06-10T11:18:35.311Z,5.60
2018-06-10T11:21:04.599Z,8.48
2018-06-10T11:23:33.959Z,6.55
2018-06-10T11:26:03.467Z,7.72
2018-06-10T11:28:32.574Z,7.92
2018-06-10T11:31:01.895Z,6.33
2018-06-10T11:33:30.948Z,8.65
2018-06-10T11:36:00.471Z,6.95
2018-06-10T11:38:30.044Z,7.53
2018-06-10T11:40:59.716Z,8.13
2018-06-10T11:43:28.928Z,8.50
2018-06-10T11:45:57.899Z,8.88
2018-06-10T11:48:27.161Z,7.22
2018-06-10T11:50:57.302Z,6.47
2018-06-10T11:53:26.974Z,5.85
2018-06-10T11:55:56.485Z,5.42
2018-06-10T11:58:26.397Z,7.17
2018-06-10T12:00:55.643Z,9.28
2018-06-10T12:03:24.822Z,11.12
2018-06-10T12:05:54.288Z,8.05
2018-06-10T12:08:23.662Z,5.90
2018-06-10T12:10:53.462Z,6.58
2018-06-10T12:13:23.509Z,7.30
2018-06-10T12:15:53.345Z,6.00
2018-06-10T12:18:22.386Z,4.78
2018-06-10T12:20:51.766Z,7.00
2018-06-10T12:23:21.489Z,5.95
2018-06-10T12:25:50.643Z,8.43
2018-06-10T12:28:20.218Z,6.08
2018-06-10T12:30:50.231Z,6.80
2018-06-10T12:33:20.407Z,8.05
2018-06-10T12:35:50.137Z,5.08
2018-06-10T12:38:19.447Z,7.00
2018-06-10T12:40:49.139Z,7.50
2018-06-10T12:43:19.404Z,7.05
2018-06-10T12:45:49.138Z,5.42
2018-06-10T12:48:18.838Z,5.90
2018-06-10T12:50:48.659Z,5.08
2018-06-10T12:53:17.900Z,6.35
2018-06-10T12:55:47.553Z,5.08
2018-06-10T12:58:17.458Z,5.87
2018-06-10T13:00:47.027Z,6.62
2018-06-10T13:03:16.636Z,5.15
2018-06-10T13:05:46.283Z,7.12
2018-06-10T13:08:15.988Z,5.58
2018-06-10T13:10:45.362Z,7.47
2018-06-10T13:13:15.019Z,8.80
2018-06-10T13:15:44.531Z,4.65
2018-06-10T13:18:13.857Z,9.65
2018-06-10T13:20:43.661Z,5.37
2018-06-10T13:23:13.048Z,7.00
2018-06-10T13:25:42.537Z,8.20
2018-06-10T13:28:12.156Z,7.37
2018-06-10T13:30:41.651Z,6.12
2018-06-10T13:33:11.053Z,5.83
2018-06-10T13:35:40.529Z,5.35
2018-06-10T13:38:09.959Z,7.65
2018-06-10T13:40:39.675Z,5.72
2018-06-10T13:43:09.043Z,7.47
2018-06-10T13:45:38.788Z,7.75
2018-06-10T13:48:08.294Z,5.25
2018-06-10T13:50:37.596Z,7.40
2018-06-10T13:53:06.988Z,7.45
2018-06-10T13:55:36.645Z,5.42
2018-06-10T13:58:06.059Z,5.55
2018-06-10T14:00:35.380Z,10.23
2018-06-10T14:03:05.207Z,8.85
2018-06-10T14:05:34.777Z,8.15
2018-06-10T14:08:04.024Z,7.62
2018-06-10T14:10:33.374Z,7.37
2018-06-10T14:13:03.247Z,10.15
2018-06-10T14:15:32.866Z,7.33
2018-06-10T14:18:02.066Z,7.90
2018-06-10T14:20:31.488Z,9.25
2018-06-10T14:23:00.717Z,6.90
2018-06-10T14:25:30.235Z,8.48
2018-06-10T14:28:00.098Z,10.13
2018-06-10T14:30:29.859Z,7.37
2018-06-10T14:32:59.188Z,8.58
2018-06-10T14:35:29.026Z,9.80
2018-06-10T14:37:58.829Z,11.50
2018-06-10T14:40:28.700Z,9.85
2018-06-10T14:42:58.505Z,13.83
2018-06-10T14:45:27.894Z,10.40
2018-06-10T14:47:57.498Z,7.35
2018-06-10T14:50:27.935Z,9.93
2018-06-10T14:52:57.632Z,10.30
2018-06-10T14:55:27.166Z,8.75
2018-06-10T14:57:56.945Z,10.13
2018-06-10T15:00:26.879Z,8.78
2018-06-10T15:02:56.470Z,7.97
2018-06-10T15:05:26.467Z,12.30
2018-06-10T15:07:56.544Z,11.08
2018-06-10T15:10:25.837Z,12.05
2018-06-10T15:12:55.299Z,11.30
2018-06-10T15:15:25.048Z,8.78
2018-06-10T15:17:54.691Z,10.82
2018-06-10T15:20:24.536Z,12.10
2018-06-10T15:22:53.721Z,12.78
2018-06-10T15:25:23.291Z,10.50
2018-06-10T15:27:52.543Z,9.78
2018-06-10T15:30:21.724Z,12.80
2018-06-10T15:32:51.123Z,12.28
2018-06-10T15:35:20.429Z,14.40
2018-06-10T15:37:50.115Z,11.90
2018-06-10T15:40:20.300Z,14.28
2018-06-10T15:42:50.282Z,18.92
2018-06-10T15:45:19.661Z,15.30
2018-06-10T15:47:48.924Z,16.62
2018-06-10T15:50:18.414Z,10.45
2018-06-10T15:52:47.977Z,10.98
2018-06-10T15:55:17.429Z,10.38
2018-06-10T15:57:46.136Z,12.55
2018-06-10T16:00:15.548Z,8.48
2018-06-10T16:02:44.872Z,7.92
2018-06-10T16:05:14.224Z,9.60
2018-06-10T16:07:43.982Z,9.48
2018-06-10T16:10:13.120Z,9.55
2018-06-10T16:12:42.600Z,9.15
2018-06-10T16:15:11.944Z,11.70
2018-06-10T16:17:41.504Z,12.25
2018-06-10T16:20:10.977Z,12.18
2018-06-10T16:22:40.187Z,11.70
2018-06-10T16:25:09.691Z,13.15
2018-06-10T16:27:39.132Z,11.57
2018-06-10T16:30:08.754Z,11.28
2018-06-10T16:32:38.207Z,13.43
2018-06-10T16:35:07.439Z,11.68
2018-06-10T16:37:36.826Z,10.40
2018-06-10T16:40:06.265Z,9.83
2018-06-10T16:42:35.899Z,9.15
2018-06-10T16:45:05.085Z,7.78
2018-06-10T16:47:34.260Z,8.70
2018-06-10T16:50:03.732Z,10.55
2018-06-10T16:52:33.494Z,9.08
2018-06-10T16:55:03.007Z,14.03
2018-06-10T16:57:32.408Z,11.93
2018-06-10T17:00:01.749Z,12.70
2018-06-10T17:02:30.994Z,34.30
2018-06-10T17:05:00.428Z,24.65
2018-06-10T17:07:29.617Z,17.92
2018-06-10T17:09:58.892Z,11.68
2018-06-10T17:12:28.506Z,11.78
2018-06-10T17:14:57.602Z,7.75
2018-06-10T17:17:27.083Z,13.98
2018-06-10T17:19:56.762Z,11.03
2018-06-10T17:22:26.317Z,12.20
2018-06-10T17:24:55.658Z,12.30
2018-06-10T17:27:24.823Z,13.93
2018-06-10T17:29:54.059Z,12.70
2018-06-10T17:32:23.457Z,12.93
2018-06-10T17:34:52.899Z,11.55
2018-06-10T17:37:22.372Z,19.62
2018-06-10T17:39:52.429Z,13.80
2018-06-10T17:42:21.805Z,15.32
2018-06-10T17:44:50.752Z,14.58
2018-06-10T17:47:20.296Z,13.03
2018-06-10T17:49:49.543Z,11.40
2018-06-10T17:52:18.772Z,12.07
2018-06-10T17:54:47.680Z,10.23
2018-06-10T17:57:17.040Z,11.12
2018-06-10T17:59:46.087Z,10.60
2018-06-10T18:02:15.621Z,12.13
2018-06-10T18:04:44.627Z,12.43
2018-06-10T18:07:13.869Z,13.83
2018-06-10T18:09:42.924Z,11.68
2018-06-10T18:12:12.364Z,13.25
2018-06-10T18:14:41.769Z,62.17
2018-06-10T18:17:11.085Z,49.38
2018-06-10T18:19:40.265Z,39.10
2018-06-10T18:22:09.576Z,32.85
2018-06-10T18:24:39.157Z,37.23
2018-06-10T18:27:08.729Z,28.70
2018-06-10T18:29:38.080Z,28.15
2018-06-10T18:32:07.281Z,22.58
2018-06-10T18:34:36.681Z,29.25
2018-06-10T18:37:06.035Z,30.02
2018-06-10T18:39:35.616Z,26.82
2018-06-10T18:42:04.893Z,22.87
2018-06-10T18:44:34.410Z,21.05
2018-06-10T18:47:04.605Z,27.07
2018-06-10T18:49:33.956Z,27.30
2018-06-10T18:52:03.443Z,22.20
2018-06-10T18:54:32.893Z,22.42
2018-06-10T18:57:02.224Z,22.22
2018-06-10T18:59:31.628Z,19.90
2018-06-10T19:02:00.911Z,16.50
2018-06-10T19:04:30.307Z,16.70
2018-06-10T19:06:59.915Z,20.80
2018-06-10T19:09:29.152Z,16.40
2018-06-10T19:11:58.488Z,15.30
2018-06-10T19:14:27.931Z,17.23
2018-06-10T19:16:57.608Z,14.40
2018-06-10T19:19:26.716Z,13.20
2018-06-10T19:21:55.918Z,13.17
2018-06-10T19:24:25.833Z,15.43
2018-06-10T19:26:55.427Z,17.03
2018-06-10T19:29:24.723Z,18.43
2018-06-10T19:31:53.976Z,18.07
2018-06-10T19:34:23.583Z,14.97
2018-06-10T19:36:53.050Z,13.63
2018-06-10T19:39:22.052Z,17.37
2018-06-10T19:41:51.383Z,17.27
2018-06-10T19:44:20.939Z,18.67
2018-06-10T19:46:50.576Z,21.53
2018-06-10T19:49:19.991Z,20.57
2018-06-10T19:51:49.436Z,18.47
2018-06-10T19:54:18.784Z,18.90
2018-06-10T19:56:48.272Z,21.30
2018-06-10T19:59:17.829Z,16.87
2018-06-10T20:01:47.364Z,16.83
2018-06-10T20:04:17.234Z,18.87
2018-06-10T20:06:46.993Z,17.93
2018-06-10T20:09:16.556Z,13.33
2018-06-10T20:11:46.067Z,23.40
2018-06-10T20:14:15.383Z,18.67
2018-06-10T20:16:44.872Z,15.03
2018-06-10T20:19:14.167Z,20.77
2018-06-10T20:21:43.411Z,15.83
2018-06-10T20:24:12.903Z,16.77
2018-06-10T20:26:42.414Z,17.40
2018-06-10T20:29:11.639Z,13.67
2018-06-10T20:31:40.986Z,13.23
2018-06-10T20:34:10.615Z,15.13
2018-06-10T20:36:39.985Z,15.27
2018-06-10T20:39:09.684Z,16.13
2018-06-10T20:41:39.192Z,17.00
2018-06-10T20:44:08.685Z,18.00
2018-06-10T20:46:37.992Z,17.43
2018-06-10T20:49:07.411Z,18.07
2018-06-10T20:51:37.180Z,13.17
2018-06-10T20:54:06.404Z,14.67
2018-06-10T20:56:35.720Z,15.27
2018-06-10T20:59:05.386Z,14.90
2018-06-10T21:01:34.925Z,14.60
2018-06-10T21:04:04.323Z,14.53
2018-06-10T21:06:33.696Z,15.17
2018-06-10T21:09:03.016Z,18.23
2018-06-10T21:11:31.759Z,14.47
2018-06-10T21:14:01.285Z,14.73
2018-06-10T21:16:30.773Z,15.67
2018-06-10T21:18:59.946Z,15.20
2018-06-10T21:21:29.496Z,16.53
2018-06-10T21:23:59.886Z,16.37
2018-06-10T21:26:29.200Z,14.43
2018-06-10T21:28:58.548Z,13.00
2018-06-10T21:31:28.009Z,13.23
2018-06-10T21:33:57.160Z,14.93
2018-06-10T21:36:26.690Z,12.63
2018-06-10T21:38:55.803Z,11.83
2018-06-10T21:41:24.993Z,13.53
2018-06-10T21:43:54.416Z,14.97
2018-06-10T21:46:23.833Z,14.13
2018-06-10T21:48:53.239Z,17.53
2018-06-10T21:51:22.401Z,19.17
2018-06-10T21:53:51.920Z,18.00
2018-06-10T21:56:21.137Z,17.53
2018-06-10T21:58:50.245Z,21.20
2018-06-10T22:01:19.869Z,19.87
2018-06-10T22:03:49.333Z,21.43
2018-06-10T22:06:18.551Z,16.10
2018-06-10T22:08:48.088Z,14.80
2018-06-10T22:11:17.032Z,17.33
2018-06-10T22:13:46.311Z,13.73
2018-06-10T22:16:15.435Z,15.67
2018-06-10T22:18:44.849Z,16.67
2018-06-10T22:21:14.158Z,18.93
2018-06-10T22:23:43.330Z,14.10
2018-06-10T22:26:12.489Z,17.47
2018-06-10T22:28:41.663Z,14.47
2018-06-10T22:31:11.035Z,16.37
2018-06-10T22:33:40.751Z,17.13
2018-06-10T22:36:09.991Z,14.10
2018-06-10T22:38:38.986Z,15.67
2018-06-10T22:41:08.343Z,14.87
2018-06-10T22:43:37.697Z,13.30
2018-06-10T22:46:06.938Z,13.17
2018-06-10T22:48:36.279Z,13.40
2018-06-10T22:51:05.823Z,17.10
2018-06-10T22:54:16.606Z,14.63
2018-06-10T22:56:46.069Z,13.80
2018-06-10T22:59:15.411Z,13.80
2018-06-10T23:01:44.883Z,16.53
2018-06-10T23:04:14.071Z,19.33
2018-06-10T23:06:43.364Z,13.93
2018-06-10T23:09:12.744Z,16.23
2018-06-10T23:11:42.127Z,14.57
2018-06-10T23:14:11.841Z,13.80
2018-06-10T23:16:41.360Z,13.70
2018-06-10T23:19:10.632Z,17.07
2018-06-10T23:21:40.088Z,13.47
2018-06-10T23:24:09.748Z,17.63
2018-06-10T23:26:38.915Z,23.70
2018-06-10T23:29:08.084Z,17.70
2018-06-10T23:31:37.295Z,21.77
2018-06-10T23:34:06.691Z,16.90
2018-06-10T23:36:35.671Z,14.63
2018-06-10T23:39:06.070Z,14.30
2018-06-10T23:41:34.814Z,15.87
2018-06-10T23:44:04.128Z,17.07
2018-06-10T23:46:33.500Z,15.20
2018-06-10T23:49:02.683Z,16.33
2018-06-10T23:51:32.023Z,17.57
2018-06-10T23:54:01.315Z,21.00
2018-06-10T23:56:30.500Z,16.63
2018-06-10T23:58:59.816Z,17.57
